sensor_id;sensor_type;location;lat;lon;timestamp;P1;durP1;ratioP1;P2;durP2;ratioP2
59294;SDS011;45067;44.654;20.200;2022-08-24T00:02:13;31.45;;;26.98;;
59294;SDS011;45067;44.654;20.200;2022-08-24T00:07:43;32.35;;;28.20;;
59294;SDS011;45067;44.654;20.200;2022-08-24T00:10:10;33.08;;;27.85;;
59294;SDS011;45067;44.654;20.200;2022-08-24T00:12:37;37.67;;;27.90;;
59294;SDS011;45067;44.654;20.200;2022-08-24T00:15:04;34.45;;;29.45;;
59294;SDS011;45067;44.654;20.200;2022-08-24T00:17:30;33.78;;;29.38;;
59294;SDS011;45067;44.654;20.200;2022-08-24T00:19:58;37.08;;;29.83;;
59294;SDS011;45067;44.654;20.200;2022-08-24T00:22:24;36.13;;;29.33;;
59294;SDS011;45067;44.654;20.200;2022-08-24T00:24:51;38.00;;;30.77;;
59294;SDS011;45067;44.654;20.200;2022-08-24T00:27:17;37.42;;;31.52;;
59294;SDS011;45067;44.654;20.200;2022-08-24T00:29:43;36.10;;;29.38;;
59294;SDS011;45067;44.654;20.200;2022-08-24T00:32:10;33.28;;;29.02;;
59294;SDS011;45067;44.654;20.200;2022-08-24T00:37:39;38.33;;;30.42;;
59294;SDS011;45067;44.654;20.200;2022-08-24T00:40:07;35.72;;;29.95;;
59294;SDS011;45067;44.654;20.200;2022-08-24T00:42:35;38.37;;;29.63;;
59294;SDS011;45067;44.654;20.200;2022-08-24T00:45:03;36.35;;;28.40;;
59294;SDS011;45067;44.654;20.200;2022-08-24T00:47:39;32.35;;;27.85;;
59294;SDS011;45067;44.654;20.200;2022-08-24T00:50:08;33.17;;;29.27;;
59294;SDS011;45067;44.654;20.200;2022-08-24T00:52:41;32.28;;;27.10;;
59294;SDS011;45067;44.654;20.200;2022-08-24T00:57:59;31.52;;;27.58;;
59294;SDS011;45067;44.654;20.200;2022-08-24T01:00:31;33.03;;;28.55;;
59294;SDS011;45067;44.654;20.200;2022-08-24T01:02:58;34.13;;;27.52;;
59294;SDS011;45067;44.654;20.200;2022-08-24T01:05:29;33.90;;;26.27;;
59294;SDS011;45067;44.654;20.200;2022-08-24T01:07:55;30.00;;;24.95;;
59294;SDS011;45067;44.654;20.200;2022-08-24T01:10:22;31.75;;;24.30;;
59294;SDS011;45067;44.654;20.200;2022-08-24T01:12:49;32.75;;;25.35;;
59294;SDS011;45067;44.654;20.200;2022-08-24T01:15:17;29.60;;;25.00;;
59294;SDS011;45067;44.654;20.200;2022-08-24T01:17:44;29.08;;;24.58;;
59294;SDS011;45067;44.654;20.200;2022-08-24T01:20:29;28.42;;;23.13;;
59294;SDS011;45067;44.654;20.200;2022-08-24T01:25:24;31.60;;;24.80;;
59294;SDS011;45067;44.654;20.200;2022-08-24T01:27:51;30.60;;;24.27;;
59294;SDS011;45067;44.654;20.200;2022-08-24T01:30:18;32.78;;;24.27;;
59294;SDS011;45067;44.654;20.200;2022-08-24T01:32:51;27.90;;;22.83;;
59294;SDS011;45067;44.654;20.200;2022-08-24T01:35:18;29.17;;;23.40;;
59294;SDS011;45067;44.654;20.200;2022-08-24T01:37:44;25.60;;;22.83;;
59294;SDS011;45067;44.654;20.200;2022-08-24T01:40:10;25.40;;;22.40;;
59294;SDS011;45067;44.654;20.200;2022-08-24T01:42:36;26.20;;;22.60;;
59294;SDS011;45067;44.654;20.200;2022-08-24T01:45:02;29.92;;;21.92;;
59294;SDS011;45067;44.654;20.200;2022-08-24T01:47:29;24.40;;;20.02;;
59294;SDS011;45067;44.654;20.200;2022-08-24T01:52:59;26.55;;;20.35;;
59294;SDS011;45067;44.654;20.200;2022-08-24T01:55:26;23.38;;;18.80;;
59294;SDS011;45067;44.654;20.200;2022-08-24T01:57:56;27.95;;;20.98;;
59294;SDS011;45067;44.654;20.200;2022-08-24T02:00:22;23.77;;;19.17;;
59294;SDS011;45067;44.654;20.200;2022-08-24T02:02:51;22.33;;;17.58;;
59294;SDS011;45067;44.654;20.200;2022-08-24T02:05:17;23.17;;;18.80;;
59294;SDS011;45067;44.654;20.200;2022-08-24T02:07:43;25.38;;;19.88;;
59294;SDS011;45067;44.654;20.200;2022-08-24T02:10:10;23.08;;;18.30;;
59294;SDS011;45067;44.654;20.200;2022-08-24T02:12:37;20.92;;;18.02;;
59294;SDS011;45067;44.654;20.200;2022-08-24T02:15:05;23.38;;;18.55;;
59294;SDS011;45067;44.654;20.200;2022-08-24T02:17:32;22.70;;;18.40;;
59294;SDS011;45067;44.654;20.200;2022-08-24T02:23:03;21.65;;;17.55;;
59294;SDS011;45067;44.654;20.200;2022-08-24T02:25:30;20.10;;;17.92;;
59294;SDS011;45067;44.654;20.200;2022-08-24T02:27:57;21.95;;;19.05;;
59294;SDS011;45067;44.654;20.200;2022-08-24T02:30:23;20.67;;;18.45;;
59294;SDS011;45067;44.654;20.200;2022-08-24T02:32:49;22.75;;;19.75;;
59294;SDS011;45067;44.654;20.200;2022-08-24T02:38:19;23.33;;;19.25;;
59294;SDS011;45067;44.654;20.200;2022-08-24T02:40:46;23.65;;;19.40;;
59294;SDS011;45067;44.654;20.200;2022-08-24T02:43:12;20.85;;;18.15;;
59294;SDS011;45067;44.654;20.200;2022-08-24T02:45:38;25.60;;;20.77;;
59294;SDS011;45067;44.654;20.200;2022-08-24T02:48:04;24.58;;;19.70;;
59294;SDS011;45067;44.654;20.200;2022-08-24T02:50:31;24.63;;;19.60;;
59294;SDS011;45067;44.654;20.200;2022-08-24T02:52:57;24.30;;;19.85;;
59294;SDS011;45067;44.654;20.200;2022-08-24T02:55:23;27.90;;;20.27;;
59294;SDS011;45067;44.654;20.200;2022-08-24T02:57:49;23.67;;;20.60;;
59294;SDS011;45067;44.654;20.200;2022-08-24T03:00:17;25.25;;;20.92;;
59294;SDS011;45067;44.654;20.200;2022-08-24T03:02:43;25.77;;;20.60;;
59294;SDS011;45067;44.654;20.200;2022-08-24T03:08:13;25.95;;;19.42;;
59294;SDS011;45067;44.654;20.200;2022-08-24T03:10:39;25.40;;;21.13;;
59294;SDS011;45067;44.654;20.200;2022-08-24T03:13:05;26.48;;;19.90;;
59294;SDS011;45067;44.654;20.200;2022-08-24T03:18:29;25.35;;;20.05;;
59294;SDS011;45067;44.654;20.200;2022-08-24T03:20:55;27.60;;;20.48;;
59294;SDS011;45067;44.654;20.200;2022-08-24T03:23:22;28.88;;;21.63;;
59294;SDS011;45067;44.654;20.200;2022-08-24T03:25:49;26.38;;;21.48;;
59294;SDS011;45067;44.654;20.200;2022-08-24T03:28:16;27.55;;;20.60;;
59294;SDS011;45067;44.654;20.200;2022-08-24T03:30:42;29.83;;;22.52;;
59294;SDS011;45067;44.654;20.200;2022-08-24T03:33:08;27.20;;;21.98;;
59294;SDS011;45067;44.654;20.200;2022-08-24T03:38:56;28.20;;;23.40;;
59294;SDS011;45067;44.654;20.200;2022-08-24T03:41:23;27.60;;;22.60;;
59294;SDS011;45067;44.654;20.200;2022-08-24T03:43:49;28.10;;;22.83;;
59294;SDS011;45067;44.654;20.200;2022-08-24T03:46:18;29.63;;;22.83;;
59294;SDS011;45067;44.654;20.200;2022-08-24T03:48:46;29.35;;;23.02;;
59294;SDS011;45067;44.654;20.200;2022-08-24T03:51:14;29.58;;;23.98;;
59294;SDS011;45067;44.654;20.200;2022-08-24T03:53:40;26.80;;;22.90;;
59294;SDS011;45067;44.654;20.200;2022-08-24T03:56:07;27.95;;;22.80;;
59294;SDS011;45067;44.654;20.200;2022-08-24T03:58:34;31.27;;;24.88;;
59294;SDS011;45067;44.654;20.200;2022-08-24T04:01:01;27.00;;;23.00;;
59294;SDS011;45067;44.654;20.200;2022-08-24T04:03:27;27.90;;;23.80;;
59294;SDS011;45067;44.654;20.200;2022-08-24T04:05:53;29.27;;;23.65;;
59294;SDS011;45067;44.654;20.200;2022-08-24T04:08:19;28.65;;;23.80;;
59294;SDS011;45067;44.654;20.200;2022-08-24T04:10:46;30.52;;;22.83;;
59294;SDS011;45067;44.654;20.200;2022-08-24T04:13:12;25.92;;;22.65;;
59294;SDS011;45067;44.654;20.200;2022-08-24T04:15:40;30.30;;;23.48;;
59294;SDS011;45067;44.654;20.200;2022-08-24T04:18:07;30.25;;;23.42;;
59294;SDS011;45067;44.654;20.200;2022-08-24T04:23:37;28.63;;;22.73;;
59294;SDS011;45067;44.654;20.200;2022-08-24T04:26:03;29.92;;;21.25;;
59294;SDS011;45067;44.654;20.200;2022-08-24T04:28:30;29.80;;;21.02;;
59294;SDS011;45067;44.654;20.200;2022-08-24T04:30:56;29.80;;;22.00;;
59294;SDS011;45067;44.654;20.200;2022-08-24T04:33:22;30.30;;;21.15;;
59294;SDS011;45067;44.654;20.200;2022-08-24T04:38:52;27.90;;;20.40;;
59294;SDS011;45067;44.654;20.200;2022-08-24T04:41:18;29.13;;;21.77;;
59294;SDS011;45067;44.654;20.200;2022-08-24T04:43:45;23.48;;;18.95;;
59294;SDS011;45067;44.654;20.200;2022-08-24T04:46:12;24.13;;;18.73;;
59294;SDS011;45067;44.654;20.200;2022-08-24T04:48:39;27.65;;;21.10;;
59294;SDS011;45067;44.654;20.200;2022-08-24T04:51:06;31.25;;;24.73;;
59294;SDS011;45067;44.654;20.200;2022-08-24T04:53:33;31.58;;;25.75;;
59294;SDS011;45067;44.654;20.200;2022-08-24T04:56:00;29.35;;;22.65;;
59294;SDS011;45067;44.654;20.200;2022-08-24T04:58:26;28.20;;;20.63;;
59294;SDS011;45067;44.654;20.200;2022-08-24T05:00:53;25.92;;;20.88;;
59294;SDS011;45067;44.654;20.200;2022-08-24T05:03:19;32.08;;;20.63;;
59294;SDS011;45067;44.654;20.200;2022-08-24T05:08:49;24.05;;;20.45;;
59294;SDS011;45067;44.654;20.200;2022-08-24T05:11:16;24.50;;;19.20;;
59294;SDS011;45067;44.654;20.200;2022-08-24T05:13:45;27.08;;;18.85;;
59294;SDS011;45067;44.654;20.200;2022-08-24T05:16:12;24.08;;;17.38;;
59294;SDS011;45067;44.654;20.200;2022-08-24T05:18:39;22.17;;;18.40;;
59294;SDS011;45067;44.654;20.200;2022-08-24T05:24:27;25.85;;;19.63;;
59294;SDS011;45067;44.654;20.200;2022-08-24T05:26:55;22.33;;;17.55;;
59294;SDS011;45067;44.654;20.200;2022-08-24T05:29:21;20.75;;;15.98;;
59294;SDS011;45067;44.654;20.200;2022-08-24T05:31:47;30.30;;;19.92;;
59294;SDS011;45067;44.654;20.200;2022-08-24T05:34:13;22.67;;;15.63;;
59294;SDS011;45067;44.654;20.200;2022-08-24T05:36:39;23.27;;;17.65;;
59294;SDS011;45067;44.654;20.200;2022-08-24T05:39:07;23.27;;;17.95;;
59294;SDS011;45067;44.654;20.200;2022-08-24T05:41:34;24.65;;;18.25;;
59294;SDS011;45067;44.654;20.200;2022-08-24T05:44:00;24.08;;;17.40;;
59294;SDS011;45067;44.654;20.200;2022-08-24T05:46:26;24.50;;;18.23;;
59294;SDS011;45067;44.654;20.200;2022-08-24T05:48:52;21.10;;;17.27;;
59294;SDS011;45067;44.654;20.200;2022-08-24T05:51:19;19.65;;;16.95;;
59294;SDS011;45067;44.654;20.200;2022-08-24T05:53:45;21.75;;;16.58;;
59294;SDS011;45067;44.654;20.200;2022-08-24T05:56:13;19.30;;;16.83;;
59294;SDS011;45067;44.654;20.200;2022-08-24T05:58:39;21.05;;;16.58;;
59294;SDS011;45067;44.654;20.200;2022-08-24T06:01:06;20.70;;;16.67;;
59294;SDS011;45067;44.654;20.200;2022-08-24T06:03:32;19.77;;;15.88;;
59294;SDS011;45067;44.654;20.200;2022-08-24T06:09:02;26.00;;;19.08;;
59294;SDS011;45067;44.654;20.200;2022-08-24T06:11:30;24.92;;;16.85;;
59294;SDS011;45067;44.654;20.200;2022-08-24T06:13:58;25.15;;;19.55;;
59294;SDS011;45067;44.654;20.200;2022-08-24T06:16:24;24.17;;;18.58;;
59294;SDS011;45067;44.654;20.200;2022-08-24T06:18:51;27.45;;;20.00;;
59294;SDS011;45067;44.654;20.200;2022-08-24T06:21:19;22.08;;;16.00;;
59294;SDS011;45067;44.654;20.200;2022-08-24T06:23:45;20.23;;;15.35;;
59294;SDS011;45067;44.654;20.200;2022-08-24T06:26:12;25.60;;;17.42;;
59294;SDS011;45067;44.654;20.200;2022-08-24T06:28:57;19.23;;;15.27;;
59294;SDS011;45067;44.654;20.200;2022-08-24T06:31:24;16.75;;;14.45;;
59294;SDS011;45067;44.654;20.200;2022-08-24T06:33:51;16.77;;;12.70;;
59294;SDS011;45067;44.654;20.200;2022-08-24T06:39:21;14.95;;;12.13;;
59294;SDS011;45067;44.654;20.200;2022-08-24T06:41:47;15.23;;;12.52;;
59294;SDS011;45067;44.654;20.200;2022-08-24T06:44:13;14.30;;;11.05;;
59294;SDS011;45067;44.654;20.200;2022-08-24T06:46:39;11.48;;;10.27;;
59294;SDS011;45067;44.654;20.200;2022-08-24T06:49:05;14.85;;;11.15;;
59294;SDS011;45067;44.654;20.200;2022-08-24T06:51:32;15.20;;;11.43;;
59294;SDS011;45067;44.654;20.200;2022-08-24T06:54:15;15.60;;;12.20;;
59294;SDS011;45067;44.654;20.200;2022-08-24T06:56:45;16.15;;;12.23;;
59294;SDS011;45067;44.654;20.200;2022-08-24T06:59:11;15.05;;;12.23;;
59294;SDS011;45067;44.654;20.200;2022-08-24T07:01:40;16.38;;;11.38;;
59294;SDS011;45067;44.654;20.200;2022-08-24T07:04:06;15.68;;;12.27;;
59294;SDS011;45067;44.654;20.200;2022-08-24T07:06:33;15.45;;;12.27;;
59294;SDS011;45067;44.654;20.200;2022-08-24T07:09:00;14.73;;;11.35;;
59294;SDS011;45067;44.654;20.200;2022-08-24T07:11:26;15.57;;;11.43;;
59294;SDS011;45067;44.654;20.200;2022-08-24T07:13:52;17.40;;;12.07;;
59294;SDS011;45067;44.654;20.200;2022-08-24T07:16:19;13.52;;;11.25;;
59294;SDS011;45067;44.654;20.200;2022-08-24T07:18:46;12.57;;;9.48;;
59294;SDS011;45067;44.654;20.200;2022-08-24T07:24:15;11.52;;;9.27;;
59294;SDS011;45067;44.654;20.200;2022-08-24T07:26:42;11.57;;;9.65;;
59294;SDS011;45067;44.654;20.200;2022-08-24T07:29:10;11.93;;;9.95;;
59294;SDS011;45067;44.654;20.200;2022-08-24T07:31:39;13.68;;;11.50;;
59294;SDS011;45067;44.654;20.200;2022-08-24T07:34:05;14.98;;;11.95;;
59294;SDS011;45067;44.654;20.200;2022-08-24T07:39:35;15.77;;;12.43;;
59294;SDS011;45067;44.654;20.200;2022-08-24T07:42:02;14.27;;;11.48;;
59294;SDS011;45067;44.654;20.200;2022-08-24T07:44:28;14.90;;;11.48;;
59294;SDS011;45067;44.654;20.200;2022-08-24T07:46:55;13.73;;;10.85;;
59294;SDS011;45067;44.654;20.200;2022-08-24T07:49:21;15.15;;;11.25;;
59294;SDS011;45067;44.654;20.200;2022-08-24T07:51:48;14.43;;;10.15;;
59294;SDS011;45067;44.654;20.200;2022-08-24T07:54:17;14.50;;;10.60;;
59294;SDS011;45067;44.654;20.200;2022-08-24T07:56:43;13.80;;;9.77;;
59294;SDS011;45067;44.654;20.200;2022-08-24T07:59:09;10.93;;;9.00;;
59294;SDS011;45067;44.654;20.200;2022-08-24T08:01:35;10.75;;;8.95;;
59294;SDS011;45067;44.654;20.200;2022-08-24T08:04:02;17.30;;;9.45;;
59294;SDS011;45067;44.654;20.200;2022-08-24T08:09:35;11.80;;;9.45;;
59294;SDS011;45067;44.654;20.200;2022-08-24T08:12:01;10.15;;;8.20;;
59294;SDS011;45067;44.654;20.200;2022-08-24T08:14:27;11.60;;;8.52;;
59294;SDS011;45067;44.654;20.200;2022-08-24T08:16:57;10.02;;;8.23;;
59294;SDS011;45067;44.654;20.200;2022-08-24T08:19:26;10.75;;;9.00;;
59294;SDS011;45067;44.654;20.200;2022-08-24T08:21:55;12.77;;;8.27;;
59294;SDS011;45067;44.654;20.200;2022-08-24T08:24:40;10.77;;;8.70;;
59294;SDS011;45067;44.654;20.200;2022-08-24T08:27:08;11.38;;;8.90;;
59294;SDS011;45067;44.654;20.200;2022-08-24T08:29:34;10.30;;;8.65;;
59294;SDS011;45067;44.654;20.200;2022-08-24T08:32:03;10.55;;;8.55;;
59294;SDS011;45067;44.654;20.200;2022-08-24T08:34:29;11.15;;;8.23;;
59294;SDS011;45067;44.654;20.200;2022-08-24T08:36:56;10.07;;;8.20;;
59294;SDS011;45067;44.654;20.200;2022-08-24T08:39:22;9.77;;;8.10;;
59294;SDS011;45067;44.654;20.200;2022-08-24T08:52:18;9.23;;;7.50;;
59294;SDS011;45067;44.654;20.200;2022-08-24T09:12:56;9.93;;;7.32;;
59294;SDS011;45067;44.654;20.200;2022-08-24T09:18:12;10.80;;;8.48;;
59294;SDS011;45067;44.654;20.200;2022-08-24T09:20:55;9.52;;;8.27;;
59294;SDS011;45067;44.654;20.200;2022-08-24T09:29:26;11.88;;;8.43;;
59294;SDS011;45067;44.654;20.200;2022-08-24T09:31:33;11.30;;;8.80;;
59294;SDS011;45067;44.654;20.200;2022-08-24T09:52:08;12.60;;;10.13;;
59294;SDS011;45067;44.654;20.200;2022-08-24T10:24:10;10.98;;;8.80;;
59294;SDS011;45067;44.654;20.200;2022-08-24T10:26:46;10.67;;;9.20;;
59294;SDS011;45067;44.654;20.200;2022-08-24T10:29:24;16.40;;;10.40;;
59294;SDS011;45067;44.654;20.200;2022-08-24T10:45:48;12.73;;;9.73;;
59294;SDS011;45067;44.654;20.200;2022-08-24T10:53:25;13.43;;;10.88;;
59294;SDS011;45067;44.654;20.200;2022-08-24T11:03:47;14.95;;;10.90;;
59294;SDS011;45067;44.654;20.200;2022-08-24T11:06:14;13.32;;;11.15;;
59294;SDS011;45067;44.654;20.200;2022-08-24T11:08:40;15.02;;;10.77;;
59294;SDS011;45067;44.654;20.200;2022-08-24T11:11:21;15.13;;;12.13;;
59294;SDS011;45067;44.654;20.200;2022-08-24T11:13:52;16.33;;;10.65;;
59294;SDS011;45067;44.654;20.200;2022-08-24T11:16:26;15.68;;;11.13;;
59294;SDS011;45067;44.654;20.200;2022-08-24T11:18:54;13.57;;;11.10;;
59294;SDS011;45067;44.654;20.200;2022-08-24T11:21:32;14.82;;;10.75;;
59294;SDS011;45067;44.654;20.200;2022-08-24T11:24:04;20.88;;;16.88;;
59294;SDS011;45067;44.654;20.200;2022-08-24T11:26:31;21.45;;;17.02;;
59294;SDS011;45067;44.654;20.200;2022-08-24T11:29:09;17.15;;;13.45;;
59294;SDS011;45067;44.654;20.200;2022-08-24T11:31:39;15.20;;;12.52;;
59294;SDS011;45067;44.654;20.200;2022-08-24T11:34:10;14.48;;;11.68;;
59294;SDS011;45067;44.654;20.200;2022-08-24T11:36:38;13.50;;;11.75;;
59294;SDS011;45067;44.654;20.200;2022-08-24T11:39:10;18.40;;;13.18;;
59294;SDS011;45067;44.654;20.200;2022-08-24T11:41:47;18.10;;;14.57;;
59294;SDS011;45067;44.654;20.200;2022-08-24T11:44:20;16.70;;;14.45;;
59294;SDS011;45067;44.654;20.200;2022-08-24T11:47:55;19.75;;;15.70;;
59294;SDS011;45067;44.654;20.200;2022-08-24T11:55:21;25.80;;;20.77;;
59294;SDS011;45067;44.654;20.200;2022-08-24T11:57:58;26.73;;;21.15;;
59294;SDS011;45067;44.654;20.200;2022-08-24T12:00:32;22.40;;;17.30;;
59294;SDS011;45067;44.654;20.200;2022-08-24T12:03:07;15.88;;;13.15;;
59294;SDS011;45067;44.654;20.200;2022-08-24T12:11:11;54.05;;;45.65;;
59294;SDS011;45067;44.654;20.200;2022-08-24T12:18:52;40.30;;;35.63;;
59294;SDS011;45067;44.654;20.200;2022-08-24T12:24:57;27.48;;;22.13;;
59294;SDS011;45067;44.654;20.200;2022-08-24T12:27:17;32.05;;;26.38;;
59294;SDS011;45067;44.654;20.200;2022-08-24T12:29:49;29.13;;;22.98;;
59294;SDS011;45067;44.654;20.200;2022-08-24T12:32:18;28.08;;;23.52;;
59294;SDS011;45067;44.654;20.200;2022-08-24T12:42:53;50.60;;;17.83;;
59294;SDS011;45067;44.654;20.200;2022-08-24T12:45:21;20.02;;;11.32;;
59294;SDS011;45067;44.654;20.200;2022-08-24T13:01:05;14.77;;;12.43;;
59294;SDS011;45067;44.654;20.200;2022-08-24T13:03:36;16.77;;;11.95;;
59294;SDS011;45067;44.654;20.200;2022-08-24T13:06:25;16.83;;;12.43;;
59294;SDS011;45067;44.654;20.200;2022-08-24T13:08:50;16.35;;;13.02;;
59294;SDS011;45067;44.654;20.200;2022-08-24T13:16:09;17.52;;;13.75;;
59294;SDS011;45067;44.654;20.200;2022-08-24T13:18:51;29.35;;;23.02;;
59294;SDS011;45067;44.654;20.200;2022-08-24T13:21:35;21.95;;;17.73;;
59294;SDS011;45067;44.654;20.200;2022-08-24T13:26:46;16.35;;;13.77;;
59294;SDS011;45067;44.654;20.200;2022-08-24T13:29:13;16.05;;;13.07;;
59294;SDS011;45067;44.654;20.200;2022-08-24T13:31:42;14.32;;;11.73;;
59294;SDS011;45067;44.654;20.200;2022-08-24T13:50:10;14.10;;;9.07;;
59294;SDS011;45067;44.654;20.200;2022-08-24T14:10:42;9.75;;;8.00;;
59294;SDS011;45067;44.654;20.200;2022-08-24T14:16:11;9.98;;;8.15;;
59294;SDS011;45067;44.654;20.200;2022-08-24T14:24:39;10.18;;;7.78;;
59294;SDS011;45067;44.654;20.200;2022-08-24T14:29:53;10.13;;;7.57;;
59294;SDS011;45067;44.654;20.200;2022-08-24T14:32:39;9.15;;;7.05;;
59294;SDS011;45067;44.654;20.200;2022-08-24T14:35:16;8.77;;;7.47;;
59294;SDS011;45067;44.654;20.200;2022-08-24T14:41:06;7.75;;;6.63;;
59294;SDS011;45067;44.654;20.200;2022-08-24T14:54:35;7.63;;;6.70;;
59294;SDS011;45067;44.654;20.200;2022-08-24T14:57:16;6.85;;;6.10;;
59294;SDS011;45067;44.654;20.200;2022-08-24T15:04:44;8.93;;;6.90;;
59294;SDS011;45067;44.654;20.200;2022-08-24T15:09:43;11.40;;;7.03;;
59294;SDS011;45067;44.654;20.200;2022-08-24T15:12:19;10.77;;;6.60;;
59294;SDS011;45067;44.654;20.200;2022-08-24T15:14:53;10.88;;;7.00;;
59294;SDS011;45067;44.654;20.200;2022-08-24T15:17:24;9.45;;;6.80;;
59294;SDS011;45067;44.654;20.200;2022-08-24T15:20:03;8.18;;;6.15;;
59294;SDS011;45067;44.654;20.200;2022-08-24T15:25:14;7.32;;;6.55;;
59294;SDS011;45067;44.654;20.200;2022-08-24T15:27:47;9.82;;;6.35;;
59294;SDS011;45067;44.654;20.200;2022-08-24T15:30:21;8.38;;;6.70;;
59294;SDS011;45067;44.654;20.200;2022-08-24T15:32:52;12.50;;;7.68;;
59294;SDS011;45067;44.654;20.200;2022-08-24T15:35:27;7.85;;;6.45;;
59294;SDS011;45067;44.654;20.200;2022-08-24T15:37:54;7.88;;;6.35;;
59294;SDS011;45067;44.654;20.200;2022-08-24T15:40:23;6.70;;;6.00;;
59294;SDS011;45067;44.654;20.200;2022-08-24T15:42:51;6.70;;;5.72;;
59294;SDS011;45067;44.654;20.200;2022-08-24T15:45:19;7.00;;;6.05;;
59294;SDS011;45067;44.654;20.200;2022-08-24T15:47:46;7.97;;;6.25;;
59294;SDS011;45067;44.654;20.200;2022-08-24T15:52:52;9.87;;;5.60;;
59294;SDS011;45067;44.654;20.200;2022-08-24T15:57:49;9.82;;;6.60;;
59294;SDS011;45067;44.654;20.200;2022-08-24T16:00:18;7.00;;;6.03;;
59294;SDS011;45067;44.654;20.200;2022-08-24T16:03:25;8.43;;;6.28;;
59294;SDS011;45067;44.654;20.200;2022-08-24T16:05:55;9.17;;;5.97;;
59294;SDS011;45067;44.654;20.200;2022-08-24T16:08:22;8.23;;;6.13;;
59294;SDS011;45067;44.654;20.200;2022-08-24T16:10:49;12.20;;;6.63;;
59294;SDS011;45067;44.654;20.200;2022-08-24T16:15:47;10.20;;;6.00;;
59294;SDS011;45067;44.654;20.200;2022-08-24T16:18:14;11.45;;;6.50;;
59294;SDS011;45067;44.654;20.200;2022-08-24T16:20:40;11.93;;;7.18;;
59294;SDS011;45067;44.654;20.200;2022-08-24T16:23:10;8.75;;;7.10;;
59294;SDS011;45067;44.654;20.200;2022-08-24T16:25:41;9.88;;;6.70;;
59294;SDS011;45067;44.654;20.200;2022-08-24T16:33:06;11.73;;;7.17;;
59294;SDS011;45067;44.654;20.200;2022-08-24T16:35:32;9.82;;;6.90;;
59294;SDS011;45067;44.654;20.200;2022-08-24T16:37:58;8.52;;;7.40;;
59294;SDS011;45067;44.654;20.200;2022-08-24T16:40:25;9.93;;;7.95;;
59294;SDS011;45067;44.654;20.200;2022-08-24T16:42:52;10.00;;;7.63;;
59294;SDS011;45067;44.654;20.200;2022-08-24T16:45:20;9.75;;;7.38;;
59294;SDS011;45067;44.654;20.200;2022-08-24T16:47:46;9.35;;;7.15;;
59294;SDS011;45067;44.654;20.200;2022-08-24T16:50:14;12.40;;;7.25;;
59294;SDS011;45067;44.654;20.200;2022-08-24T16:52:40;9.48;;;7.55;;
59294;SDS011;45067;44.654;20.200;2022-08-24T16:55:13;11.57;;;7.38;;
59294;SDS011;45067;44.654;20.200;2022-08-24T16:57:39;10.73;;;7.40;;
59294;SDS011;45067;44.654;20.200;2022-08-24T17:00:09;9.57;;;7.22;;
59294;SDS011;45067;44.654;20.200;2022-08-24T17:02:37;13.50;;;6.25;;
59294;SDS011;45067;44.654;20.200;2022-08-24T17:05:03;8.93;;;7.38;;
59294;SDS011;45067;44.654;20.200;2022-08-24T17:07:30;8.85;;;6.13;;
59294;SDS011;45067;44.654;20.200;2022-08-24T17:09:57;8.93;;;6.72;;
59294;SDS011;45067;44.654;20.200;2022-08-24T17:12:25;13.55;;;8.98;;
59294;SDS011;45067;44.654;20.200;2022-08-24T17:14:51;10.43;;;7.75;;
59294;SDS011;45067;44.654;20.200;2022-08-24T17:17:18;20.35;;;8.48;;
59294;SDS011;45067;44.654;20.200;2022-08-24T17:19:49;12.15;;;9.15;;
59294;SDS011;45067;44.654;20.200;2022-08-24T17:22:15;10.65;;;8.15;;
59294;SDS011;45067;44.654;20.200;2022-08-24T17:24:42;9.43;;;7.43;;
59294;SDS011;45067;44.654;20.200;2022-08-24T17:27:08;13.75;;;9.13;;
59294;SDS011;45067;44.654;20.200;2022-08-24T17:29:34;12.20;;;8.00;;
59294;SDS011;45067;44.654;20.200;2022-08-24T17:32:01;13.50;;;8.10;;
59294;SDS011;45067;44.654;20.200;2022-08-24T17:34:27;9.52;;;7.68;;
59294;SDS011;45067;44.654;20.200;2022-08-24T17:36:54;9.70;;;7.15;;
59294;SDS011;45067;44.654;20.200;2022-08-24T17:39:20;9.75;;;7.32;;
59294;SDS011;45067;44.654;20.200;2022-08-24T17:41:50;9.18;;;7.45;;
59294;SDS011;45067;44.654;20.200;2022-08-24T17:44:18;11.23;;;7.63;;
59294;SDS011;45067;44.654;20.200;2022-08-24T17:46:46;13.10;;;7.75;;
59294;SDS011;45067;44.654;20.200;2022-08-24T17:49:14;9.30;;;7.55;;
59294;SDS011;45067;44.654;20.200;2022-08-24T17:51:41;10.82;;;8.45;;
59294;SDS011;45067;44.654;20.200;2022-08-24T17:54:07;13.05;;;8.88;;
59294;SDS011;45067;44.654;20.200;2022-08-24T17:56:34;9.88;;;8.60;;
59294;SDS011;45067;44.654;20.200;2022-08-24T17:59:08;11.43;;;8.98;;
59294;SDS011;45067;44.654;20.200;2022-08-24T18:01:44;13.57;;;9.27;;
59294;SDS011;45067;44.654;20.200;2022-08-24T18:04:10;12.43;;;10.48;;
59294;SDS011;45067;44.654;20.200;2022-08-24T18:06:39;9.63;;;8.57;;
59294;SDS011;45067;44.654;20.200;2022-08-24T18:09:26;12.05;;;9.40;;
59294;SDS011;45067;44.654;20.200;2022-08-24T18:11:52;11.70;;;8.90;;
59294;SDS011;45067;44.654;20.200;2022-08-24T18:14:19;9.25;;;7.68;;
59294;SDS011;45067;44.654;20.200;2022-08-24T18:16:45;12.77;;;8.82;;
59294;SDS011;45067;44.654;20.200;2022-08-24T18:19:11;10.52;;;8.70;;
59294;SDS011;45067;44.654;20.200;2022-08-24T18:21:39;10.77;;;8.25;;
59294;SDS011;45067;44.654;20.200;2022-08-24T18:24:05;11.77;;;8.70;;
59294;SDS011;45067;44.654;20.200;2022-08-24T18:26:31;10.27;;;8.40;;
59294;SDS011;45067;44.654;20.200;2022-08-24T18:28:58;17.75;;;12.38;;
59294;SDS011;45067;44.654;20.200;2022-08-24T18:31:27;15.85;;;11.27;;
59294;SDS011;45067;44.654;20.200;2022-08-24T18:33:53;15.60;;;11.10;;
59294;SDS011;45067;44.654;20.200;2022-08-24T18:36:19;14.43;;;10.93;;
59294;SDS011;45067;44.654;20.200;2022-08-24T18:41:49;13.25;;;11.15;;
59294;SDS011;45067;44.654;20.200;2022-08-24T18:44:17;13.55;;;10.50;;
59294;SDS011;45067;44.654;20.200;2022-08-24T18:46:43;12.07;;;10.77;;
59294;SDS011;45067;44.654;20.200;2022-08-24T18:49:09;22.75;;;11.70;;
59294;SDS011;45067;44.654;20.200;2022-08-24T18:51:36;16.65;;;11.40;;
59294;SDS011;45067;44.654;20.200;2022-08-24T18:57:06;14.27;;;11.10;;
59294;SDS011;45067;44.654;20.200;2022-08-24T18:59:33;17.85;;;11.50;;
59294;SDS011;45067;44.654;20.200;2022-08-24T19:01:59;21.25;;;16.55;;
59294;SDS011;45067;44.654;20.200;2022-08-24T19:04:48;15.85;;;11.35;;
59294;SDS011;45067;44.654;20.200;2022-08-24T19:07:14;15.18;;;11.25;;
59294;SDS011;45067;44.654;20.200;2022-08-24T19:09:40;14.63;;;11.55;;
59294;SDS011;45067;44.654;20.200;2022-08-24T19:12:06;15.90;;;11.60;;
59294;SDS011;45067;44.654;20.200;2022-08-24T19:14:33;15.73;;;12.43;;
59294;SDS011;45067;44.654;20.200;2022-08-24T19:17:00;14.25;;;11.43;;
59294;SDS011;45067;44.654;20.200;2022-08-24T19:19:26;16.85;;;13.57;;
59294;SDS011;45067;44.654;20.200;2022-08-24T19:21:52;17.02;;;14.25;;
59294;SDS011;45067;44.654;20.200;2022-08-24T19:24:20;17.38;;;12.98;;
59294;SDS011;45067;44.654;20.200;2022-08-24T19:26:47;14.32;;;12.32;;
59294;SDS011;45067;44.654;20.200;2022-08-24T19:29:13;13.00;;;11.43;;
59294;SDS011;45067;44.654;20.200;2022-08-24T19:31:39;14.60;;;12.40;;